Nearby METAR Reports

 

CYUL - Montreal/Dorval, Quebec, Canada
Distance from station: ENE 6km
Updated: 05/25/2018 20:00 EDT
Overcast
Overcast
 Wind from SW
Wind: SW 31 km/h, Gust: 43 km/h
Temperature: 20°C
Dew Point: 14°C
Humidity: 69%
Barometer: 1005.4 hPa
Clouds: Overcast
Visibility: 24 km
Cloud details: Few Clouds 1372 m
Few Clouds 3048 m
Overcast 3962 m
2018/05/26 00:00 CYUL 260000Z 22017G23KT 15SM FEW045 FEW100 OVC130 20/14 A2969 RMK CF1AC1AS7 CF TR AC ASOCTD SLP054 DENSITY ALT 1100FT
CWVQ - Ste Anne De Bell, Quebec, Canada
Distance from station: WSW 10km
Updated: 05/25/2018 20:00 EDT

 Wind from WSW
Wind: WSW 20 km/h, Gust: 39 km/h
Temperature: 21°C
Dew Point: 16°C
Humidity: 73%
2018/05/26 00:00 CWVQ 260000Z AUTO 25011G21KT 21/16 RMK AO1 PK WND 23021/2346 SLP056 T02100160 53010
 
CWTA - Mc Tavish (aut), Quebec, Canada
Distance from station: ENE 18km
Updated: 05/25/2018 20:00 EDT

 Wind from SSW
Wind: SSW 9 km/h
Temperature: 20°C
Dew Point: 14°C
Humidity: 69%
2018/05/26 00:00 CWTA 260000Z AUTO 20005KT 20/14 RMK AO1 SLP049 T01950140 53007
CYMX - Montreal/Mirabel, Quebec, Canada
Distance from station: NW 29km
Updated: 05/25/2018 20:00 EDT
Overcast
Overcast
 Wind from WSW
Wind: WSW 19 km/h, Gust: 44 km/h
Temperature: 21°C
Dew Point: 16°C
Humidity: 73%
Barometer: 1004.7 hPa
Clouds: Overcast
Visibility: 40 km
Cloud details: Few Clouds 1372 m
Partly cloudy 3962 m
Mostly cloudy 5182 m
Mostly cloudy 6401 m
Overcast 7315 m
2018/05/26 00:00 CYMX 260000Z 25010G24KT 220V290 25SM FEW045 SCT130 BKN170 BKN210 OVC240 21/16 A2967 RMK CU1AC4AC1CI2CI1 CU TR SLP050 DENSITY ALT 1400FT
 
CYHU - Saint Hubert Arp, Quebec, Canada
Distance from station: ENE 31km
Updated: 05/25/2018 20:00 EDT
Overcast
Overcast
 Wind from WSW
Wind: WSW 33 km/h, Gust: 52 km/h
Temperature: 21°C
Dew Point: 15°C
Humidity: 69%
Barometer: 1004.4 hPa
Clouds: Overcast
Visibility: 14 km
Cloud details: Overcast 4267 m
2018/05/26 00:00 CYHU 260000Z AUTO 24018G28KT 9SM OVC140 21/15 A2966 RMK SLP045 DENSITY ALT 1000FT
CWIT - St Clothilde (a, Quebec, Canada
Distance from station: SSE 33km
Updated: 05/25/2018 20:00 EDT

 Wind from WSW
Wind: WSW 13 km/h
Temperature: 21°C
Dew Point: 13°C
Humidity: 60%
2018/05/26 00:00 CWIT 260000Z AUTO 25007KT 21/13 RMK AO1 PK WND 26020/2327 SLP058 T02070132 53008
 
CWIZ - L'acadie, Quebec, Canada
Distance from station: ESE 41km
Updated: 05/25/2018 20:00 EDT

 Wind from W
Wind: W 22 km/h, Gust: 37 km/h
Temperature: 21°C
Dew Point: 14°C
Humidity: 64%
2018/05/26 00:00 CWIZ 260000Z AUTO 26012G20KT 21/14 RMK AO1 PK WND 27026/2328 T02110143 50001
CWHM - Varennes, Quebec, Canada
Distance from station: NE 45km
Updated: 10/25/2016 10:00 EDT
NOT Current

 Wind from W
Wind: W 19 km/h, Gust: 28 km/h
Temperature: 4°C
Wind Chill: 0°C
Dew Point: -2°C
Humidity: 65%
2016/10/25 14:00 CWHM 251400Z AUTO 28010G15KT 04/M02 RMK AO1 PK WND 28018/1302 T00391017
 
CWEW - L'assomption, Quebec, Canada
Distance from station: NE 50km
Updated: 05/25/2018 20:00 EDT

 Wind from WSW
Wind: WSW 22 km/h, Gust: 35 km/h
Temperature: 23°C
Dew Point: 16°C
Humidity: 65%
2018/05/26 00:00 CWEW 260000Z AUTO 24012G19KT 23/16 RMK AO1 PK WND 20024/2326 SLP039 T02340156 53005
CWBZ - St Anicet, Quebec, Canada
Distance from station: SW 52km
Updated: 05/25/2018 20:00 EDT

 Wind from WSW
Wind: WSW 13 km/h
Temperature: 17°C
Dew Point: 14°C
Humidity: 83%
2018/05/26 00:00 CWBZ 260000Z AUTO 24007KT 17/14 RMK AO1 T01650144 53010
 
KFSO - Highgate, Vermont, USA
Distance from station: SE 79km
Updated: 05/25/2018 20:15 EDT
Mostly cloudy
Mostly cloudy
 Wind from SW
Wind: SW 6 km/h
Temperature: 21°C
Dew Point: 15°C
Humidity: 69%
Barometer: 1006.4 hPa
Clouds: Mostly cloudy
Visibility: 16 km
Cloud details: Partly cloudy 1829 m
Partly cloudy 2134 m
Mostly cloudy 3658 m
2018/05/26 00:15 KFSO 260015Z AUTO 22003KT 10SM SCT060 SCT070 BKN120 21/15 A2972 RMK AO2 T02130145
CMGB - Granby, Quebec, Canada
Distance from station: E 81km
Updated: 05/25/2018 20:15 EDT

 Wind from WSW
Wind: WSW 17 km/h, Gust: 28 km/h
Temperature: 22°C
Dew Point: 15°C
Humidity: 65%
2018/05/26 00:15 CMGB 260015Z AUTO 24009G15KT 22/15 RMK AO1 SLP046 T02200146 53006
 
CWJT - St Jovite (autob, Quebec, Canada
Distance from station: NW 88km
Updated: 05/25/2018 20:00 EDT

 Wind from SW
Wind: SW 9 km/h
Temperature: 22°C
Dew Point: 16°C
Humidity: 69%
2018/05/26 00:00 CWJT 260000Z AUTO 23005KT 22/16 RMK AO1 SLP044 T02180155 53007
CWFQ - Frelighsburg, Quebec, Canada
Distance from station: ESE 90km
Updated: 05/25/2018 20:00 EDT

 Wind from WSW
Wind: WSW 9 km/h
Temperature: 21°C
Dew Point: 14°C
Humidity: 64%
2018/05/26 00:00 CWFQ 260000Z AUTO 25005KT 21/14 RMK AO1 SLP061 T02140140 53008
 
KPBG - Plattsburgh Afb, New York, USA
Distance from station: SSE 93km
Updated: 05/25/2018 19:53 EDT
Overcast
Overcast
 Wind from varies
Wind: varies 7 km/h, Gust: 31 km/h
Temperature: 22°C
Dew Point: 12°C
Humidity: 53%
Barometer: 1005.8 hPa
Clouds: Overcast
Visibility: 16 km
Cloud details: Overcast 3353 m
2018/05/25 23:53 KPBG 252353Z AUTO VRB04G17KT 10SM OVC110 22/12 A2970 RMK AO2 SLP057 T02170122 10272 20217 50002
KMSS - Massena, New York, USA
Distance from station: SW 100km
Updated: 05/25/2018 19:53 EDT
Light rain, Overcast
Light rain, Overcast
 Wind from calm
Wind: Calm
Temperature: 18°C
Dew Point: 16°C
Humidity: 88%
Barometer: 1007.8 hPa
Summary: Light rain
Clouds: Overcast
Visibility: 13 km
Cloud details: Mostly cloudy 1829 m
Overcast 2286 m
2018/05/25 23:53 KMSS 252353Z AUTO 00000KT 8SM -RA BKN060 OVC075 18/16 A2976 RMK AO2 SLP076 P0001 60006 T01780161 10261 20172 51003
 
CWBS - Lac St Pierre (a, Quebec, Canada
Distance from station: NE 106km
Updated: 05/25/2018 20:00 EDT

 Wind from SW
Wind: SW 43 km/h
Temperature: 22°C
Dew Point: 15°C
Humidity: 65%
2018/05/26 00:00 CWBS 260000Z AUTO 22023KT 22/15 RMK AO1 PK WND 22028/2344 T02170153
KBTV - Burlington, Vermont, USA
Distance from station: SSE 121km
Updated: 12/31/1969 19:00 EST
NOT Current
unable to load KBTV data RC=404 Not Found
unable to load KBTV data RC=404 Not Found
 
 
KSLK - Saranac Lake, New York, USA
Distance from station: SSW 121km
Updated: 05/25/2018 19:51 EDT
Overcast
Overcast
 Wind from calm
Wind: Calm
Temperature: 16°C
Dew Point: 16°C
Humidity: 100%
Barometer: 1009.1 hPa
Clouds: Overcast
Visibility: 16 km
Cloud details: Mostly cloudy 1829 m
Overcast 3048 m
2018/05/25 23:51 KSLK 252351Z AUTO 00000KT 10SM BKN060 OVC100 16/16 A2980 RMK AO2 SLP088 60003 T01560156 10244 20156 58000
CWNQ - Nicolet (autob), Quebec, Canada
Distance from station: NE 123km
Updated: 05/25/2018 20:00 EDT

 Wind from SW
Wind: SW 22 km/h, Gust: 31 km/h
Temperature: 23°C
Dew Point: 16°C
Humidity: 65%
2018/05/26 00:00 CWNQ 260000Z AUTO 23012G17KT 23/16 RMK AO1 PK WND 23020/2300 SLP012 T02290164 53003
 
KMWN - Mount Washington, New Hampshire, USA
Distance from station: SE 237km
Updated: 05/25/2018 19:52 EDT
Overcast
Overcast
 Wind from W
Wind: W 107 km/h, Gust: 122 km/h
Temperature: 9°C
Wind Chill: 2°C
Dew Point: 8°C
Humidity: 94%
Clouds: Overcast
Visibility: 72 km
Cloud details: Overcast 244 m
2018/05/25 23:52 KMWN 252352Z 27058G66KT 45SM OVC008 09/08 RMK VIRGA OHD 60000 10110 20088
CYVR - Vancouver Intl A, British Columbia, Canada
Distance from station: NW 3676km
Updated: 05/25/2018 20:00 EDT
Partly cloudy
Partly cloudy
 Wind from SW
Wind: SW 15 km/h
Temperature: 17°C
Dew Point: 10°C
Humidity: 64%
Barometer: 1015.2 hPa
Clouds: Partly cloudy
Visibility: 48 km
Cloud details: Few Clouds 1524 m
Few Clouds 6401 m
Partly cloudy 7010 m
2018/05/26 00:00 CYVR 260000Z 22008KT 30SM FEW050 FEW210 SCT230 17/10 A2998 RMK CU1CC1CI2 CONTRAILS SLP153 DENSITY ALT 200FT